Time;durP1;ratioP1;P1;durP2;ratioP2;P2;SDS_P1;SDS_P2;PMS_P1;PMS_P2;Temp;Humidity;BMP_temperature;BMP_pressure;BME280_temperature;BME280_humidity;BME280_pressure;Samples;Min_cycle;Max_cycle;Signal;HPM_P1;HPM_P2
2022/09/14 00:01:28;119294768.00;397.65;68771976.00;0.00;0.00;0.62;;;;;24.10;1.00;;;;;;2271796;61;1394;-82
2022/09/14 00:03:58;504612.00;1.68;869.76;20477.00;0.07;36.10;;;;;24.00;1.00;;;;;;2276192;40;3593;-83
2022/09/14 00:06:26;713441.00;2.38;1230.55;18258.00;0.06;32.25;;;;;23.80;1.00;;;;;;2271808;61;1272;-82
2022/09/14 00:08:54;461022.00;1.54;794.74;59454.00;0.20;103.53;;;;;23.90;1.00;;;;;;2271900;61;1074;-83
2022/09/14 00:11:23;947887.00;3.16;1640.39;34808.00;0.12;60.90;;;;;24.00;1.00;;;;;;2303966;40;3641;-83
2022/09/14 00:13:51;569671.00;1.90;981.88;37361.00;0.12;65.32;;;;;24.00;1.00;;;;;;2271893;61;1134;-83
2022/09/14 00:16:19;585069.00;1.95;1008.45;0.00;0.00;0.62;;;;;23.90;1.00;;;;;;2271769;61;1015;-83
2022/09/14 00:18:50;807960.00;2.69;1395.01;70467.00;0.23;122.57;;;;;23.80;1.00;;;;;;2274980;56;3812;-83
2022/09/14 00:23:48;1842742.00;6.14;3306.26;45083.00;0.15;78.68;;;;;23.90;1.00;;;;;;2278670;61;1439;-84
2022/09/14 00:26:17;560125.00;1.87;965.42;54597.00;0.18;95.14;;;;;24.10;1.00;;;;;;2276501;61;1174;-83
2022/09/14 00:28:46;404345.00;1.35;697.27;36024.00;0.12;63.01;;;;;24.00;1.00;;;;;;2276688;61;995;-82
2022/09/14 00:31:14;889488.00;2.96;1537.66;69020.00;0.23;120.07;;;;;23.90;1.00;;;;;;2290449;56;3844;-84
2022/09/14 00:33:42;471846.00;1.57;813.37;65933.00;0.22;114.73;;;;;24.00;1.00;;;;;;2280526;60;1095;-85
2022/09/14 00:36:11;634925.00;2.12;1094.56;73029.00;0.24;126.99;;;;;23.90;1.00;;;;;;2280490;60;1025;-84
2022/09/14 00:38:40;1012670.00;3.38;1754.92;72163.00;0.24;125.50;;;;;23.80;1.00;;;;;;2280476;60;1927;-84
2022/09/14 00:41:13;912275.00;3.04;1577.69;0.00;0.00;0.62;;;;;23.70;1.00;;;;;;2280389;60;1797;-85
2022/09/14 00:43:56;390380.00;1.30;673.27;41996.00;0.14;73.34;;;;;23.50;1.00;;;;;;2280523;60;1134;-85
2022/09/14 00:46:23;450215.00;1.50;776.15;54250.00;0.18;94.54;;;;;23.50;1.00;;;;;;2280509;60;1052;-84
2022/09/14 00:48:50;600833.00;2.00;1035.66;46862.00;0.16;81.76;;;;;23.50;1.00;;;;;;2273436;60;1170;-85
2022/09/14 00:51:21;584661.00;1.95;1007.74;77571.00;0.26;134.84;;;;;23.70;1.00;;;;;;2280529;60;1631;-83
2022/09/14 00:53:49;461229.00;1.54;795.10;43563.00;0.15;76.05;;;;;23.60;1.00;;;;;;2280414;60;1470;-84
2022/09/14 00:56:17;783343.00;2.61;1352.09;108989.00;0.36;189.09;;;;;23.70;1.00;;;;;;2279049;55;3801;-82
2022/09/14 00:58:48;977504.00;3.26;1692.67;54570.00;0.18;95.09;;;;;23.70;1.00;;;;;;2300293;40;3736;-84
2022/09/14 01:01:15;431971.00;1.44;744.78;0.00;0.00;0.62;;;;;23.80;1.00;;;;;;2280312;60;1347;-83
2022/09/14 01:03:42;691793.00;2.31;1193.01;68261.00;0.23;118.76;;;;;23.70;1.00;;;;;;2276343;61;1459;-84
2022/09/14 01:06:18;628492.00;2.09;1083.44;0.00;0.00;0.62;;;;;23.60;1.00;;;;;;2276444;61;1100;-84
2022/09/14 01:08:59;869928.00;2.90;1503.36;64428.00;0.21;112.13;;;;;23.50;1.00;;;;;;2276395;61;1162;-84
2022/09/14 01:11:51;442839.00;1.48;763.47;76677.00;0.26;133.30;;;;;23.70;1.00;;;;;;2276251;61;1424;-84
2022/09/14 01:14:26;387555.00;1.29;668.41;52788.00;0.18;92.01;;;;;23.60;1.00;;;;;;2276424;61;1779;-81
2022/09/14 01:17:01;748195.00;2.49;1290.92;68726.00;0.23;119.56;;;;;23.70;1.00;;;;;;2276295;61;1702;-84
2022/09/14 01:19:41;503648.00;1.68;868.10;122994.00;0.41;213.25;;;;;23.50;1.00;;;;;;2276222;61;1940;-84
2022/09/14 01:22:14;558708.00;1.86;962.97;0.00;0.00;0.62;;;;;23.60;1.00;;;;;;2276312;61;1715;-84
2022/09/14 01:24:46;738132.00;2.46;1273.43;86016.00;0.29;149.43;;;;;23.70;1.00;;;;;;2320300;39;3805;-83
2022/09/14 01:29:57;2006357.00;6.69;3637.39;21160.00;0.07;37.28;;;;;23.60;1.00;;;;;;2269811;61;1424;-86
2022/09/14 01:32:31;806631.00;2.69;1392.69;72656.00;0.24;126.35;;;;;23.50;1.00;;;;;;2322717;40;3822;-82
2022/09/14 01:35:09;1103113.00;3.68;1915.99;88183.00;0.29;153.17;;;;;23.50;1.00;;;;;;2280186;60;1599;-84
2022/09/14 01:37:43;538056.00;1.79;927.37;76479.00;0.25;132.95;;;;;23.70;1.00;;;;;;2372187;39;3621;-84
2022/09/14 01:40:17;628929.00;2.10;1084.20;76782.00;0.26;133.48;;;;;23.70;1.00;;;;;;2280319;60;1648;-85
2022/09/14 01:42:50;518073.00;1.73;892.95;115635.00;0.39;200.55;;;;;23.60;1.00;;;;;;2299318;55;3760;-84
2022/09/14 01:45:22;374045.00;1.25;645.19;0.00;0.00;0.62;;;;;23.40;1.00;;;;;;2280259;60;1583;-87
2022/09/14 01:47:54;759728.00;2.53;1310.98;893.00;0.00;2.17;;;;;23.50;1.00;;;;;;2280155;60;1525;-85
2022/09/14 01:52:56;1627492.00;5.42;2885.40;0.00;0.00;0.62;;;;;23.20;1.00;;;;;;2277891;61;1443;-85
2022/09/14 01:57:59;2062418.00;6.87;3753.29;41430.00;0.14;72.36;;;;;23.10;1.00;;;;;;2277646;61;1955;-84
2022/09/14 02:00:29;662642.00;2.21;1142.51;18227.00;0.06;32.20;;;;;23.10;1.00;;;;;;2276213;61;1342;-84
2022/09/14 02:03:02;620656.00;2.07;1069.90;0.00;0.00;0.62;;;;;23.30;1.00;;;;;;2277254;39;3671;-83
2022/09/14 02:05:36;512392.00;1.71;883.16;80706.00;0.27;140.26;;;;;23.10;1.00;;;;;;2308221;40;3756;-84
2022/09/14 02:08:04;536404.00;1.79;924.53;81520.00;0.27;141.66;;;;;22.90;1.00;;;;;;2276082;61;1262;-84
2022/09/14 02:10:31;292696.00;0.98;505.36;73783.00;0.25;128.30;;;;;23.00;1.00;;;;;;2276212;61;1776;-83
2022/09/14 02:12:59;706751.00;2.36;1218.95;48082.00;0.16;83.87;;;;;23.20;1.00;;;;;;2276077;61;1635;-84
2022/09/14 02:15:28;586430.00;1.95;1010.79;73244.00;0.24;127.37;;;;;23.10;1.00;;;;;;2276206;61;1614;-85
2022/09/14 02:17:56;788045.00;2.63;1360.28;65230.00;0.22;113.52;;;;;23.20;1.00;;;;;;2276237;61;2006;-84
2022/09/14 02:20:30;586971.00;1.96;1011.73;49883.00;0.17;86.98;;;;;23.30;1.00;;;;;;2276182;61;1604;-83
2022/09/14 02:22:59;320218.00;1.07;552.67;114984.00;0.38;199.43;;;;;23.40;1.00;;;;;;2276210;61;2042;-85
2022/09/14 02:25:27;624462.00;2.08;1076.48;0.00;0.00;0.62;;;;;23.40;1.00;;;;;;2276076;61;1513;-83
2022/09/14 02:27:55;737609.00;2.46;1272.52;98834.00;0.33;171.56;;;;;23.40;1.00;;;;;;2276077;61;1592;-84
2022/09/14 02:30:23;814130.00;2.71;1405.78;143608.00;0.48;248.79;;;;;23.50;1.00;;;;;;2292004;40;3828;-87
2022/09/14 02:33:07;118291088.00;394.30;67049164.00;64008.00;0.21;111.40;;;;;23.50;1.00;;;;;;2280112;60;1730;-84
2022/09/14 02:35:41;533405.00;1.78;919.36;0.00;0.00;0.62;;;;;23.40;1.30;;;;;;2280232;60;1065;-84
2022/09/14 02:38:18;494890.00;1.65;853.03;64459.00;0.21;112.18;;;;;23.30;1.00;;;;;;2280168;60;1994;-83
2022/09/14 02:40:53;584468.00;1.95;1007.41;71584.00;0.24;124.50;;;;;23.40;1.00;;;;;;2280002;60;1709;-84
2022/09/14 02:43:32;679896.00;2.27;1172.39;57246.00;0.19;99.72;;;;;23.40;1.00;;;;;;2280022;60;1082;-83
2022/09/14 02:46:10;508761.00;1.70;876.91;13654.00;0.05;24.28;;;;;23.40;1.10;;;;;;2280253;60;1136;-83
2022/09/14 02:48:47;250403.00;0.83;432.64;55979.00;0.19;97.53;;;;;23.30;1.00;;;;;;2280247;60;1795;-83
2022/09/14 02:51:30;478441.00;1.59;824.71;0.00;0.00;0.62;;;;;23.30;1.00;;;;;;2280288;60;1447;-86
2022/09/14 02:54:03;320691.00;1.07;553.49;59800.00;0.20;104.13;;;;;23.10;1.50;;;;;;2280169;60;1134;-84
2022/09/14 02:56:31;574152.00;1.91;989.61;57986.00;0.19;101.00;;;;;23.20;1.40;;;;;;2279995;60;1214;-85
2022/09/14 02:58:58;568351.00;1.89;979.60;73028.00;0.24;126.99;;;;;23.10;1.50;;;;;;2280049;60;2013;-84
2022/09/14 03:01:26;827250.00;2.76;1428.69;61381.00;0.20;106.86;;;;;23.20;1.10;;;;;;2279923;60;1272;-84
2022/09/14 03:03:55;342046.00;1.14;590.19;0.00;0.00;0.62;;;;;23.40;1.30;;;;;;2280172;60;1686;-84
2022/09/14 03:06:23;672997.00;2.24;1160.44;84935.00;0.28;147.56;;;;;23.30;1.00;;;;;;2338317;40;3830;-83
2022/09/14 03:08:50;1517647.00;5.06;2676.37;192969.00;0.64;333.82;;;;;23.20;1.30;;;;;;2339532;39;3613;-83
2022/09/14 03:11:20;1144243.00;3.81;1989.73;194087.00;0.65;335.74;;;;;23.30;1.00;;;;;;2279919;60;1812;-84
2022/09/14 03:13:47;489073.00;1.63;843.01;66683.00;0.22;116.03;;;;;23.60;1.00;;;;;;2279999;60;1413;-85
2022/09/14 03:16:16;649051.00;2.16;1118.99;25255.00;0.08;44.37;;;;;23.40;1.10;;;;;;2280155;60;959;-85
2022/09/14 03:18:43;1017204.00;3.39;1762.97;77457.00;0.26;134.64;;;;;23.30;1.00;;;;;;2280113;60;2289;-84
2022/09/14 03:21:14;726200.00;2.42;1252.70;84288.00;0.28;146.44;;;;;23.20;1.10;;;;;;2280197;60;1391;-85
2022/09/14 03:23:44;447535.00;1.49;771.54;56595.00;0.19;98.59;;;;;23.10;1.00;;;;;;2280181;60;1488;-84
2022/09/14 03:26:14;408312.00;1.36;704.09;59420.00;0.20;103.47;;;;;23.20;2.20;;;;;;2280229;60;1020;-84
2022/09/14 03:28:42;468351.00;1.56;807.35;49984.00;0.17;87.16;;;;;23.30;1.10;;;;;;2280193;60;991;-84
2022/09/14 03:31:11;301755.00;1.01;520.94;13207.00;0.04;23.50;;;;;23.40;1.20;;;;;;2280141;60;1381;-85
2022/09/14 03:33:40;690460.00;2.30;1190.70;47135.00;0.16;82.23;;;;;23.30;2.00;;;;;;2282632;39;3603;-87
2022/09/14 03:38:47;926535.00;3.09;1602.77;48154.00;0.16;83.99;;;;;23.10;2.70;;;;;;2333677;56;1891;-85
2022/09/14 03:49:04;454692.00;1.52;783.85;58944.00;0.20;102.65;;;;;23.20;2.50;;;;;;2506520;40;2113;-85
2022/09/14 04:01:55;477080.00;1.59;822.37;0.00;0.00;0.62;;;;;23.30;1.70;;;;;;2077079;40;2741;-88
2022/09/14 04:04:50;1194636.00;3.98;2080.52;0.00;0.00;0.62;;;;;23.30;2.60;;;;;;2415972;40;3658;-86
2022/09/14 04:17:50;467467.00;1.56;805.83;0.00;0.00;0.62;;;;;23.30;3.70;;;;;;2452005;40;2132;-86
2022/09/14 04:22:53;510916.00;1.70;880.62;50605.00;0.17;88.23;;;;;23.30;2.80;;;;;;2333430;40;1784;-86
2022/09/14 04:30:29;2140947.00;7.14;3917.87;162660.00;0.54;281.62;;;;;22.80;4.60;;;;;;818689;41;3484;-88
2022/09/14 04:51:28;2952323.00;9.84;5798.35;21392.00;0.07;37.68;;;;;22.90;5.80;;;;;;2305982;40;3650;-88
2022/09/14 05:04:16;822736.00;2.74;1420.80;0.00;0.00;0.62;;;;;22.90;4.60;;;;;;1762878;40;3211;-88
2022/09/14 05:06:48;933855.00;3.11;1615.66;21748.00;0.07;38.30;;;;;22.50;7.20;;;;;;2272839;61;1320;-87
2022/09/14 05:09:18;613441.00;2.04;1057.43;0.00;0.00;0.62;;;;;22.60;7.50;;;;;;2280015;55;3727;-84
2022/09/14 05:11:46;706823.00;2.36;1219.07;45447.00;0.15;79.31;;;;;22.60;7.40;;;;;;2278281;55;3813;-84
2022/09/14 05:14:14;802356.00;2.67;1385.23;102152.00;0.34;177.29;;;;;22.80;6.00;;;;;;2276499;61;1663;-85
2022/09/14 05:16:43;1160008.00;3.87;2018.08;112794.00;0.38;195.65;;;;;23.00;4.80;;;;;;2298554;40;3557;-85
2022/09/14 05:21:50;640633.00;2.14;1104.43;73843.00;0.25;128.40;;;;;23.00;5.70;;;;;;2358215;41;2120;-86
2022/09/14 05:29:30;262483.00;0.87;453.42;0.00;0.00;0.62;;;;;23.10;3.50;;;;;;1864329;40;2085;-84
2022/09/14 05:31:59;969248.00;3.23;1678.08;0.00;0.00;0.62;;;;;23.20;3.00;;;;;;2272507;61;1441;-86
2022/09/14 05:34:27;637757.00;2.13;1099.46;67082.00;0.22;116.72;;;;;23.30;3.10;;;;;;2293449;40;3813;-85
2022/09/14 05:39:31;2026633.00;6.76;3679.15;30358.00;0.10;53.20;;;;;23.00;6.70;;;;;;2414352;40;3585;-85
2022/09/14 05:44:34;117713.00;0.39;204.14;0.00;0.00;0.62;;;;;23.00;7.30;;;;;;2446620;40;2032;-86
2022/09/14 05:47:03;378227.00;1.26;652.38;69616.00;0.23;121.10;;;;;22.90;5.60;;;;;;2277060;61;1700;-88
2022/09/14 05:54:39;2417659.00;8.06;4520.16;122414.00;0.41;212.25;;;;;23.20;6.60;;;;;;2422526;40;3600;-84
2022/09/14 06:02:17;943563.00;3.15;1632.76;158420.00;0.53;274.32;;;;;23.30;5.10;;;;;;2346733;41;1792;-86
2022/09/14 06:12:28;935945.00;3.12;1619.34;72923.00;0.24;126.81;;;;;23.00;9.30;;;;;;2316699;56;1790;-86
2022/09/14 06:14:56;944528.00;3.15;1634.46;66888.00;0.22;116.38;;;;;23.30;8.60;;;;;;2276151;61;1142;-87
2022/09/14 06:17:24;1260196.00;4.20;2199.44;175589.00;0.59;303.89;;;;;23.40;8.70;;;;;;2296102;40;3596;-85
2022/09/14 06:19:51;1301867.00;4.34;2275.52;90793.00;0.30;157.68;;;;;23.50;8.30;;;;;;2210670;40;5255071;-86
2022/09/14 06:24:57;1520274.00;5.07;2681.33;88002.00;0.29;152.86;;;;;23.70;7.30;;;;;;2287848;56;1812;-86
2022/09/14 06:27:26;1119250.00;3.73;1944.88;79703.00;0.27;138.52;;;;;23.60;8.00;;;;;;2320064;55;3742;-87
2022/09/14 06:29:53;1007553.00;3.36;1745.85;70012.00;0.23;121.78;;;;;23.50;7.70;;;;;;2322526;40;3781;-84
2022/09/14 06:32:22;2700300.00;9.00;5175.44;334017.00;1.11;576.39;;;;;23.80;6.90;;;;;;2316488;40;3748;-84
2022/09/14 06:34:49;1396433.00;4.65;2449.71;83961.00;0.28;145.88;;;;;24.00;6.10;;;;;;2284278;40;3617;-88
2022/09/14 06:37:16;484015.00;1.61;834.31;7893.00;0.03;14.30;;;;;24.20;5.80;;;;;;2276513;61;942;-88
2022/09/14 06:39:43;408869.00;1.36;705.05;10549.00;0.04;18.90;;;;;24.20;5.90;;;;;;2276275;61;1919;-88
2022/09/14 06:42:10;765199.00;2.55;1320.50;11730.00;0.04;20.95;;;;;24.20;7.00;;;;;;2299024;56;3901;-88
2022/09/14 06:44:39;551903.00;1.84;951.24;8745.00;0.03;15.77;;;;;24.30;6.90;;;;;;2276394;61;1570;-88
2022/09/14 06:52:02;1124245.00;3.75;1953.84;30285.00;0.10;53.08;;;;;24.30;7.30;;;;;;2273907;61;1421;-88
2022/09/14 06:59:28;1271239.00;4.24;2219.56;0.00;0.00;0.62;;;;;24.70;7.70;;;;;;2274196;61;1904;-88
2022/09/14 07:06:53;925736.00;3.09;1601.37;42394.00;0.14;74.03;;;;;23.80;11.10;;;;;;2273974;61;1342;-88
2022/09/14 07:09:20;188939.00;0.63;326.88;0.00;0.00;0.62;;;;;23.70;11.80;;;;;;2272256;61;1003;-89
2022/09/14 07:11:48;222968.00;0.74;385.45;0.00;0.00;0.62;;;;;24.00;11.50;;;;;;2272116;61;1314;-86
2022/09/14 07:16:44;1019501.00;3.40;1767.04;0.00;0.00;0.62;;;;;23.90;11.30;;;;;;2274043;61;1405;-86
2022/09/14 07:19:13;273435.00;0.91;472.25;0.00;0.00;0.62;;;;;24.30;10.90;;;;;;2272050;61;2008;-88
2022/09/14 07:21:41;50992.00;0.17;88.90;0.00;0.00;0.62;;;;;24.70;10.50;;;;;;2272174;61;1396;-87
2022/09/14 07:24:11;483642.00;1.61;833.67;104135.00;0.35;180.71;;;;;25.30;8.10;;;;;;2272200;61;966;-87
2022/09/14 07:26:41;17569.00;0.06;31.06;0.00;0.00;0.62;;;;;26.00;7.40;;;;;;2272369;61;1078;-88
2022/09/14 07:29:11;32845.00;0.11;57.51;0.00;0.00;0.62;;;;;26.80;5.00;;;;;;2272351;61;1064;-88
2022/09/14 07:31:40;132724.00;0.44;230.03;0.00;0.00;0.62;;;;;27.20;2.80;;;;;;2272770;61;1297;-88
2022/09/14 07:34:08;15017.00;0.05;26.64;0.00;0.00;0.62;;;;;27.60;1.30;;;;;;2273024;61;1078;-85
2022/09/14 07:36:36;107584.00;0.36;186.66;0.00;0.00;0.62;;;;;27.60;1.00;;;;;;2273049;61;1044;-87
2022/09/14 07:39:05;176260.00;0.59;305.05;0.00;0.00;0.62;;;;;27.60;1.00;;;;;;2272927;61;1915;-87
2022/09/14 07:41:35;139247.00;0.46;241.27;0.00;0.00;0.62;;;;;26.70;1.00;;;;;;2272937;61;1399;-87
2022/09/14 07:44:03;335786.00;1.12;579.43;54351.00;0.18;94.71;;;;;26.00;4.20;;;;;;2272954;61;1590;-88
2022/09/14 07:46:32;18691.00;0.06;33.00;0.00;0.00;0.62;;;;;25.70;5.50;;;;;;2273021;61;1017;-87
2022/09/14 07:49:01;4994.00;0.02;9.28;0.00;0.00;0.62;;;;;26.10;4.60;;;;;;2272945;61;1014;-88
2022/09/14 07:51:30;35340.00;0.12;61.83;0.00;0.00;0.62;;;;;26.60;2.70;;;;;;2272925;61;1297;-87
2022/09/14 07:53:57;96760.00;0.32;167.98;0.00;0.00;0.62;;;;;26.90;2.30;;;;;;2272900;61;1835;-86
2022/09/14 07:56:24;0.00;0.00;0.62;0.00;0.00;0.62;;;;;27.20;2.50;;;;;;2272786;61;1019;-86
2022/09/14 07:58:55;0.00;0.00;0.62;0.00;0.00;0.62;;;;;27.20;1.40;;;;;;2272909;61;1181;-86
2022/09/14 08:01:23;17127.00;0.06;30.29;0.00;0.00;0.62;;;;;27.60;1.00;;;;;;2272799;61;2054;-85
2022/09/14 08:03:50;191880.00;0.64;331.95;34749.00;0.12;60.80;;;;;27.70;1.00;;;;;;2272859;61;1108;-86
2022/09/14 08:06:20;139294.00;0.46;241.35;46231.00;0.15;80.67;;;;;27.90;1.00;;;;;;2272828;61;1012;-86
2022/09/14 08:08:49;12867.00;0.04;22.92;0.00;0.00;0.62;;;;;27.90;1.00;;;;;;2272916;61;942;-87
2022/09/14 08:11:18;74440.00;0.25;129.43;0.00;0.00;0.62;;;;;27.80;1.00;;;;;;2272778;61;1374;-87
2022/09/14 08:13:47;0.00;0.00;0.62;0.00;0.00;0.62;;;;;27.90;1.00;;;;;;2272886;61;1180;-86
2022/09/14 08:16:15;288983.00;0.96;498.98;0.00;0.00;0.62;;;;;28.50;1.00;;;;;;2272814;61;1102;-86
2022/09/14 08:18:42;281955.00;0.94;486.90;21432.00;0.07;37.75;;;;;28.40;1.00;;;;;;2272819;61;1004;-87
2022/09/14 08:21:11;10346.00;0.03;18.55;0.00;0.00;0.62;;;;;28.40;1.00;;;;;;2272659;61;2001;-86
2022/09/14 08:23:39;198879.00;0.66;343.99;0.00;0.00;0.62;;;;;28.30;1.00;;;;;;2272818;61;1121;-87
2022/09/14 08:26:07;101663.00;0.34;176.44;0.00;0.00;0.62;;;;;28.10;1.00;;;;;;2272790;61;1003;-87
2022/09/14 08:28:35;340776.00;1.14;588.01;0.00;0.00;0.62;;;;;27.90;1.00;;;;;;2272786;61;1108;-86
2022/09/14 08:31:03;369160.00;1.23;636.79;0.00;0.00;0.62;;;;;27.00;1.00;;;;;;2272721;61;1410;-86
2022/09/14 08:33:33;363278.00;1.21;626.68;13154.00;0.04;23.41;;;;;26.50;1.00;;;;;;2272626;61;1035;-86
2022/09/14 08:36:01;450780.00;1.50;777.12;0.00;0.00;0.62;;;;;26.90;1.00;;;;;;2272782;61;1056;-86
2022/09/14 08:38:29;185165.00;0.62;320.38;0.00;0.00;0.62;;;;;27.80;1.00;;;;;;2272702;61;1845;-87
2022/09/14 08:40:56;118587.00;0.40;205.64;0.00;0.00;0.62;;;;;28.50;1.00;;;;;;2272513;61;1911;-86
2022/09/14 08:43:26;334026.00;1.11;576.41;0.00;0.00;0.62;;;;;28.80;1.00;;;;;;2272732;61;881;-85
2022/09/14 08:46:03;176668.00;0.59;305.75;0.00;0.00;0.62;;;;;29.10;1.00;;;;;;2272694;61;1111;-85
2022/09/14 08:48:36;445123.00;1.48;767.39;10971.00;0.04;19.63;;;;;28.90;1.00;;;;;;2272714;61;1261;-86
2022/09/14 08:51:05;495309.00;1.65;853.75;0.00;0.00;0.62;;;;;28.20;1.00;;;;;;2272696;61;1414;-87
2022/09/14 08:53:36;371585.00;1.24;640.96;0.00;0.00;0.62;;;;;28.20;1.00;;;;;;2272565;61;1532;-86
2022/09/14 08:56:11;530322.00;1.77;914.05;0.00;0.00;0.62;;;;;28.60;1.00;;;;;;2272716;61;1533;-85
2022/09/14 08:58:53;393430.00;1.31;678.51;0.00;0.00;0.62;;;;;28.70;1.00;;;;;;2272630;61;1061;-86
2022/09/14 09:01:28;444619.00;1.48;766.53;0.00;0.00;0.62;;;;;29.00;1.00;;;;;;2272592;61;1924;-85
2022/09/14 09:04:31;802308.00;2.67;1385.15;49144.00;0.16;85.71;;;;;28.90;1.00;;;;;;2272604;61;1051;-86
2022/09/14 09:07:08;601623.00;2.01;1037.02;0.00;0.00;0.62;;;;;28.90;1.00;;;;;;2271571;61;1173;-85
2022/09/14 09:09:43;493640.00;1.65;850.87;0.00;0.00;0.62;;;;;28.90;1.00;;;;;;2272460;61;1118;-85
2022/09/14 09:12:15;567709.00;1.89;978.50;0.00;0.00;0.62;;;;;28.70;1.00;;;;;;2272409;61;1592;-84
2022/09/14 09:14:48;346099.00;1.15;597.16;0.00;0.00;0.62;;;;;28.60;1.00;;;;;;2272452;61;1078;-85
2022/09/14 09:17:20;435977.00;1.45;751.66;0.00;0.00;0.62;;;;;28.90;1.00;;;;;;2272601;61;1160;-87
2022/09/14 09:20:00;567496.00;1.89;978.13;98980.00;0.33;171.81;;;;;28.80;1.00;;;;;;2272390;61;2000;-86
2022/09/14 09:22:33;490879.00;1.64;846.12;0.00;0.00;0.62;;;;;28.70;1.00;;;;;;2272480;61;1070;-88
2022/09/14 09:25:04;528166.00;1.76;910.33;0.00;0.00;0.62;;;;;28.50;1.00;;;;;;2276086;40;3600;-86
2022/09/14 09:27:31;690475.00;2.30;1190.72;42963.00;0.14;75.01;;;;;28.70;1.00;;;;;;2276408;61;1167;-86
2022/09/14 09:29:58;814674.00;2.72;1406.73;78986.00;0.26;137.29;;;;;28.70;1.00;;;;;;2276289;61;1051;-87
2022/09/14 09:32:26;464450.00;1.55;800.64;0.00;0.00;0.62;;;;;28.90;1.00;;;;;;2272368;61;1742;-85
2022/09/14 09:34:54;625070.00;2.08;1077.53;0.00;0.00;0.62;;;;;29.00;1.00;;;;;;2272343;61;1007;-85
2022/09/14 09:37:23;597685.00;1.99;1030.22;0.00;0.00;0.62;;;;;29.10;1.00;;;;;;2272402;61;1125;-86
2022/09/14 09:39:51;728787.00;2.43;1257.20;0.00;0.00;0.62;;;;;29.10;1.00;;;;;;2272327;61;2006;-87
2022/09/14 09:42:21;399119.00;1.33;688.29;62572.00;0.21;108.92;;;;;29.10;1.00;;;;;;2272479;61;1291;-86
2022/09/14 09:44:55;552882.00;1.84;952.93;0.00;0.00;0.62;;;;;28.60;1.00;;;;;;2272184;61;1019;-86
2022/09/14 09:47:29;566958.00;1.89;977.20;3473.00;0.01;6.64;;;;;28.50;1.00;;;;;;2272379;61;1121;-86
2022/09/14 09:50:04;308285.00;1.03;532.16;0.00;0.00;0.62;;;;;28.70;1.00;;;;;;2272323;61;1081;-86
2022/09/14 09:52:33;688629.00;2.30;1187.53;0.00;0.00;0.62;;;;;28.40;1.00;;;;;;2272182;61;944;-87
2022/09/14 09:55:01;930155.00;3.10;1609.14;0.00;0.00;0.62;;;;;28.30;1.00;;;;;;2285706;56;3815;-85
2022/09/14 09:57:30;416633.00;1.39;718.40;0.00;0.00;0.62;;;;;28.10;1.00;;;;;;2276395;61;1095;-86
2022/09/14 10:00:19;406310.00;1.35;700.65;0.00;0.00;0.62;;;;;28.80;1.00;;;;;;2276262;61;2067;-86
2022/09/14 10:02:47;390702.00;1.30;673.82;25868.00;0.09;45.43;;;;;29.20;1.00;;;;;;2272507;61;1013;-86
2022/09/14 10:05:27;407531.00;1.36;702.75;0.00;0.00;0.62;;;;;29.40;1.00;;;;;;2272466;61;1105;-86
2022/09/14 10:07:58;518755.00;1.73;894.12;0.00;0.00;0.62;;;;;29.30;1.00;;;;;;2272340;61;1707;-87
2022/09/14 10:10:41;804432.00;2.68;1388.85;18819.00;0.06;33.22;;;;;29.60;1.00;;;;;;2283055;40;3875;-85
2022/09/14 10:13:22;134153144.00;447.18;97835592.00;118723.00;0.40;205.88;;;;;29.70;1.00;;;;;;2272225;61;1744;-87
2022/09/14 10:15:48;519679.00;1.73;895.71;0.00;0.00;0.62;;;;;29.70;1.00;;;;;;2272316;61;1132;-88
2022/09/14 10:18:18;117578720.00;391.93;65844056.00;0.00;0.00;0.62;;;;;29.60;1.00;;;;;;2272289;61;937;-88
2022/09/14 10:21:06;357052.00;1.19;615.98;0.00;0.00;0.62;;;;;29.60;1.00;;;;;;2272336;61;1924;-89
2022/09/14 10:23:36;429918.00;1.43;741.24;0.00;0.00;0.62;;;;;29.60;1.00;;;;;;2272297;61;979;-87
2022/09/14 10:26:25;730097.00;2.43;1259.47;0.00;0.00;0.62;;;;;29.50;1.00;;;;;;2272265;61;1504;-87
2022/09/14 10:28:52;588518.00;1.96;1014.40;59884.00;0.20;104.28;;;;;30.10;1.00;;;;;;2272145;61;1124;-86
2022/09/14 10:31:27;830917.00;2.77;1435.10;32183.00;0.11;56.36;;;;;30.40;1.00;;;;;;2272146;61;1418;-87
2022/09/14 10:33:56;544967.00;1.82;939.28;0.00;0.00;0.62;;;;;30.40;1.00;;;;;;2272234;61;1220;-88
2022/09/14 10:36:29;374996.00;1.25;646.82;47342.00;0.16;82.59;;;;;30.50;1.00;;;;;;2284255;40;3653;-86
2022/09/14 10:39:01;972337.00;3.24;1683.54;0.00;0.00;0.62;;;;;30.60;1.00;;;;;;2299166;56;3770;-85
2022/09/14 10:41:34;450172.00;1.50;776.08;0.00;0.00;0.62;;;;;30.70;1.00;;;;;;2273446;61;1994;-88
2022/09/14 10:44:25;467389.00;1.56;805.70;75813.00;0.25;131.80;;;;;30.30;1.00;;;;;;2272103;61;1022;-88
2022/09/14 10:47:08;899214.00;3.00;1554.74;71013.00;0.24;123.51;;;;;30.10;1.00;;;;;;2272260;61;1670;-87
2022/09/14 10:49:49;615807.00;2.05;1061.52;0.00;0.00;0.62;;;;;30.20;1.00;;;;;;2272036;61;1661;-88
2022/09/14 10:52:28;815304.00;2.72;1407.83;10279.00;0.03;18.43;;;;;30.70;1.00;;;;;;2283034;40;3701;-85
2022/09/14 10:55:23;1010060.00;3.37;1750.30;16514.00;0.06;29.23;;;;;31.00;1.00;;;;;;2276153;61;1887;-85
2022/09/14 10:58:00;921321.00;3.07;1593.60;15975.00;0.05;28.30;;;;;30.90;1.00;;;;;;2302769;56;3775;-86
2022/09/14 11:00:30;741241.00;2.47;1278.83;69629.00;0.23;121.12;;;;;30.40;1.00;;;;;;2277866;40;3815;-85
2022/09/14 11:03:23;1233270.00;4.11;2150.49;84296.00;0.28;146.46;;;;;30.40;1.00;;;;;;2272161;61;1510;-88
2022/09/14 11:06:04;826122.00;2.75;1426.72;70036.00;0.23;121.82;;;;;30.40;1.00;;;;;;2271931;61;913;-86
2022/09/14 11:08:40;1004940.00;3.35;1741.22;81087.00;0.27;140.91;;;;;30.30;1.00;;;;;;2272060;61;1087;-86
2022/09/14 11:11:25;863839.00;2.88;1492.70;3465.00;0.01;6.63;;;;;30.50;1.00;;;;;;2271916;61;1426;-88
2022/09/14 11:14:07;1254178.00;4.18;2188.49;50247.00;0.17;87.61;;;;;30.50;1.00;;;;;;2277052;55;3793;-87
2022/09/14 11:16:54;924869.00;3.08;1599.84;70848.00;0.24;123.23;;;;;29.90;1.00;;;;;;2280929;40;3598;-86
2022/09/14 11:19:34;1245371.00;4.15;2172.47;66608.00;0.22;115.90;;;;;29.80;1.00;;;;;;2278375;40;3583;-86
2022/09/14 11:22:09;1627198.00;5.42;2884.83;238974.00;0.80;412.99;;;;;30.30;1.00;;;;;;2283064;55;3644;-85
2022/09/14 11:24:43;523948.00;1.75;903.07;29848.00;0.10;52.32;;;;;30.40;1.00;;;;;;2272122;61;1064;-88
2022/09/14 11:27:22;225796.00;0.75;390.32;0.00;0.00;0.62;;;;;30.40;1.00;;;;;;2272145;61;996;-87
2022/09/14 11:29:55;206285.00;0.69;356.74;0.00;0.00;0.62;;;;;30.40;1.00;;;;;;2272224;61;1100;-87
2022/09/14 11:32:29;532019.00;1.77;916.97;54290.00;0.18;94.60;;;;;30.70;1.00;;;;;;2268153;61;1345;-86
2022/09/14 11:35:02;260590.00;0.87;450.16;0.00;0.00;0.62;;;;;31.00;1.00;;;;;;2268271;61;1126;-86
2022/09/14 11:37:37;202924.00;0.68;350.96;0.00;0.00;0.62;;;;;30.90;1.00;;;;;;2268168;61;1059;-86
2022/09/14 11:40:15;476023.00;1.59;820.55;0.00;0.00;0.62;;;;;30.80;1.00;;;;;;2268141;61;1474;-87
2022/09/14 11:42:49;472581.00;1.58;814.63;0.00;0.00;0.62;;;;;30.80;1.00;;;;;;2268107;61;1078;-87
2022/09/14 11:45:21;249710.00;0.83;431.45;0.00;0.00;0.62;;;;;31.00;1.00;;;;;;2268132;61;1157;-87
2022/09/14 11:47:56;181639.00;0.61;314.31;0.00;0.00;0.62;;;;;30.60;1.00;;;;;;2268037;61;1098;-87
2022/09/14 11:50:26;415541.00;1.39;716.52;26798.00;0.09;47.04;;;;;30.40;1.00;;;;;;2268020;61;1508;-87
2022/09/14 11:53:03;384840.00;1.28;663.74;0.00;0.00;0.62;;;;;29.70;1.00;;;;;;2267804;61;1123;-87
2022/09/14 11:55:32;480246.00;1.60;827.82;0.00;0.00;0.62;;;;;29.50;1.00;;;;;;2268111;61;952;-87
2022/09/14 11:58:00;482649.00;1.61;831.96;0.00;0.00;0.62;;;;;29.60;1.00;;;;;;2268077;61;1113;-88
2022/09/14 12:01:01;459395.00;1.53;791.94;0.00;0.00;0.62;;;;;29.30;1.00;;;;;;2267810;61;2010;-87
2022/09/14 12:04:11;209077.00;0.70;361.55;0.00;0.00;0.62;;;;;29.10;1.00;;;;;;2274984;55;3779;-87
2022/09/14 12:06:55;694601.00;2.32;1197.88;0.00;0.00;0.62;;;;;28.40;1.00;;;;;;2267548;61;1641;-87